Time;durP1;ratioP1;P1;durP2;ratioP2;P2;SDS_P1;SDS_P2;PMS_P1;PMS_P2;Temp;Humidity;BMP_temperature;BMP_pressure;BME280_temperature;BME280_humidity;BME280_pressure;Samples;Min_cycle;Max_cycle;Signal;HPM_P1;HPM_P2
2023/03/19 00:00:30;;;;;;;27.85;23.60;;;;;;;8.84;100.00;101092.22;5008169;28;20060;-84
2023/03/19 00:02:57;;;;;;;28.15;23.98;;;;;;;8.87;100.00;101083.50;5052706;28;20056;-84
2023/03/19 00:05:33;;;;;;;28.40;24.10;;;;;;;8.88;100.00;101083.50;5022677;28;20061;-86
2023/03/19 00:08:03;;;;;;;28.30;23.98;;;;;;;8.90;100.00;101078.28;5030664;28;20045;-83
2023/03/19 00:10:31;;;;;;;30.67;23.92;;;;;;;8.91;100.00;101078.31;5023894;28;20057;-85
2023/03/19 00:12:59;;;;;;;30.27;24.63;;;;;;;8.91;100.00;101067.78;5052500;28;20045;-85
2023/03/19 00:15:26;;;;;;;31.52;26.17;;;;;;;8.93;100.00;101070.44;5014861;28;20053;-84
2023/03/19 00:17:55;;;;;;;31.33;24.38;;;;;;;8.93;100.00;101073.94;5011867;28;20056;-84
2023/03/19 00:20:22;;;;;;;29.88;25.55;;;;;;;8.94;100.00;101074.81;5020602;28;20049;-84
2023/03/19 00:22:50;;;;;;;27.65;24.42;;;;;;;8.94;100.00;101078.34;5051973;28;20049;-84
2023/03/19 00:25:17;;;;;;;33.22;25.25;;;;;;;8.94;100.00;101072.19;5010349;28;20661;-84
2023/03/19 00:27:45;;;;;;;25.58;22.85;;;;;;;8.93;100.00;101071.31;5034534;28;20045;-84
2023/03/19 00:30:13;;;;;;;26.35;23.30;;;;;;;8.91;100.00;101073.03;5029448;28;20056;-84
2023/03/19 00:32:41;;;;;;;29.13;24.75;;;;;;;8.92;100.00;101072.19;4989991;28;20068;-85
2023/03/19 00:35:09;;;;;;;28.33;24.35;;;;;;;8.91;100.00;101075.66;5034051;28;20384;-84
2023/03/19 00:37:39;;;;;;;29.92;23.30;;;;;;;8.89;100.00;101069.53;5054085;28;20045;-84
2023/03/19 00:40:09;;;;;;;27.10;23.42;;;;;;;8.90;100.00;101076.56;5019747;28;20061;-84
2023/03/19 00:42:36;;;;;;;30.83;25.08;;;;;;;8.89;100.00;101064.25;5053109;28;20056;-84
2023/03/19 00:45:04;;;;;;;28.77;25.20;;;;;;;8.89;100.00;101069.53;5050523;28;20525;-84
2023/03/19 00:47:32;;;;;;;30.05;24.02;;;;;;;8.89;100.00;101072.16;5009266;28;20033;-84
2023/03/19 00:50:00;;;;;;;28.80;22.60;;;;;;;8.89;100.00;101074.78;4989739;28;20418;-84
2023/03/19 00:52:30;;;;;;;28.35;25.20;;;;;;;8.89;100.00;101066.88;5048456;28;20036;-85
2023/03/19 00:54:57;;;;;;;28.00;24.17;;;;;;;8.89;100.00;101072.16;5029792;28;20056;-84
2023/03/19 00:57:24;;;;;;;30.55;24.80;;;;;;;8.88;100.00;101075.63;5033131;28;20049;-84
2023/03/19 00:59:52;;;;;;;28.92;24.10;;;;;;;8.88;100.00;101080.88;5026452;28;20537;-84
2023/03/19 01:02:20;;;;;;;29.33;24.95;;;;;;;8.89;100.00;101074.78;4999175;28;20709;-84
2023/03/19 01:04:48;;;;;;;27.92;22.98;;;;;;;8.90;100.00;101075.66;5004013;28;20053;-84
2023/03/19 01:07:16;;;;;;;26.27;23.52;;;;;;;8.90;100.00;101078.28;5036539;28;20041;-84
2023/03/19 01:09:43;;;;;;;26.67;23.85;;;;;;;8.90;100.00;101084.44;5002035;28;20053;-84
2023/03/19 01:12:11;;;;;;;28.75;23.42;;;;;;;8.90;100.00;101079.19;5006077;28;20049;-84
2023/03/19 01:14:38;;;;;;;27.38;23.48;;;;;;;8.90;100.00;101081.81;5006931;28;20050;-84
2023/03/19 01:17:06;;;;;;;28.52;23.00;;;;;;;8.90;100.00;101076.56;5000620;28;20041;-84
2023/03/19 01:19:33;;;;;;;28.80;23.50;;;;;;;8.90;100.00;101084.44;4980701;28;20053;-84
2023/03/19 01:22:03;;;;;;;27.50;23.25;;;;;;;8.90;100.00;101083.53;5015068;28;20046;-84
2023/03/19 01:24:32;;;;;;;27.42;22.45;;;;;;;8.91;100.00;101088.81;5010759;28;20061;-84
2023/03/19 01:27:00;;;;;;;25.08;22.38;;;;;;;8.90;100.00;101083.53;5002969;28;20046;-84
2023/03/19 01:29:32;;;;;;;25.40;22.27;;;;;;;8.90;100.00;101087.06;4992157;28;20068;-85
2023/03/19 01:32:09;;;;;;;27.52;22.75;;;;;;;8.90;100.00;101092.31;5037296;28;20049;-84
2023/03/19 01:34:46;;;;;;;27.40;21.63;;;;;;;8.91;100.00;101088.81;4999006;28;20052;-84
2023/03/19 01:37:16;;;;;;;27.90;21.45;;;;;;;8.90;100.00;101089.69;5013916;28;20045;-84
2023/03/19 01:39:45;;;;;;;26.63;21.00;;;;;;;8.91;100.00;101090.56;5019175;28;20049;-84
2023/03/19 01:42:14;;;;;;;25.30;21.38;;;;;;;8.91;100.00;101085.31;5015977;28;20061;-84
2023/03/19 01:45:02;;;;;;;26.30;20.38;;;;;;;8.90;100.00;101089.69;5033757;28;20521;-83
2023/03/19 01:47:32;;;;;;;;;;;;;;;8.90;100.00;101080.91;5033474;28;20046;-85
2023/03/19 01:50:42;;;;;;;25.33;20.48;;;;;;;8.89;100.00;101087.03;5009096;28;20393;-84
2023/03/19 01:53:42;;;;;;;26.73;20.60;;;;;;;8.87;100.00;101081.75;5037877;28;20057;-84
2023/03/19 01:56:22;;;;;;;25.48;21.08;;;;;;;8.87;100.00;101076.50;5024356;28;20057;-86
2023/03/19 01:59:24;;;;;;;23.83;20.88;;;;;;;8.88;100.00;101078.25;5032331;28;20454;-85
2023/03/19 02:02:24;;;;;;;26.98;20.20;;;;;;;8.88;100.00;101075.63;5032596;28;20384;-84
2023/03/19 02:04:59;;;;;;;22.83;20.20;;;;;;;8.88;100.00;101073.00;5023584;28;20569;-84
2023/03/19 02:07:45;;;;;;;24.77;19.52;;;;;;;8.89;100.00;101077.41;5036916;28;20391;-85
2023/03/19 02:10:15;;;;;;;27.05;19.75;;;;;;;8.90;100.00;101076.56;5016197;28;20399;-84
2023/03/19 02:12:43;;;;;;;20.67;18.08;;;;;;;8.92;100.00;101079.19;5018252;28;20049;-85
2023/03/19 02:15:11;;;;;;;21.50;19.20;;;;;;;8.91;100.00;101080.94;5001842;28;20041;-83
2023/03/19 02:17:41;;;;;;;28.70;20.80;;;;;;;8.93;100.00;101080.97;5023718;28;20046;-85
2023/03/19 02:20:27;;;;;;;21.20;18.13;;;;;;;8.94;100.00;101080.06;5017540;28;20056;-85
2023/03/19 02:23:07;;;;;;;19.63;17.35;;;;;;;8.94;100.00;101082.69;5003121;28;20060;-84
2023/03/19 02:26:02;;;;;;;25.52;18.83;;;;;;;8.96;100.00;101081.00;5019081;28;20054;-84
2023/03/19 02:28:32;;;;;;;21.55;17.85;;;;;;;8.97;100.00;101088.03;5032656;28;20049;-85
2023/03/19 02:31:00;;;;;;;26.33;19.23;;;;;;;9.00;100.00;101089.78;5017547;28;20053;-84
2023/03/19 02:33:30;;;;;;;23.90;18.73;;;;;;;9.01;100.00;101081.06;5003280;28;20450;-85
2023/03/19 02:35:58;;;;;;;24.55;20.45;;;;;;;9.02;100.00;101074.91;5009456;28;20058;-83
2023/03/19 02:38:29;;;;;;;26.90;19.92;;;;;;;9.04;100.00;101083.75;4988369;28;20117;-83
2023/03/19 02:41:04;;;;;;;21.98;19.33;;;;;;;9.03;100.00;101077.56;5031412;28;20053;-83
2023/03/19 02:43:33;;;;;;;22.85;18.23;;;;;;;9.04;100.00;101073.22;5020231;28;20518;-84
2023/03/19 02:46:05;;;;;;;24.80;20.63;;;;;;;9.04;100.00;101079.34;5000294;28;20056;-84
2023/03/19 02:48:33;;;;;;;26.20;20.80;;;;;;;9.05;100.00;101085.50;5003598;28;20061;-84
2023/03/19 02:51:04;;;;;;;23.88;20.08;;;;;;;9.05;100.00;101080.22;4999291;28;20049;-84
2023/03/19 02:53:33;;;;;;;24.85;19.70;;;;;;;9.05;100.00;101088.13;4992780;28;20052;-87
2023/03/19 02:56:04;;;;;;;24.70;20.42;;;;;;;9.05;100.00;101085.50;5014025;28;20049;-83
2023/03/19 02:58:31;;;;;;;;;;;;;;;9.05;100.00;101072.34;4997575;28;20045;-84
2023/03/19 03:01:00;;;;;;;26.25;19.27;;;;;;;9.03;100.00;101074.94;5030083;28;19933;-84
2023/03/19 03:03:31;;;;;;;25.30;19.27;;;;;;;9.03;100.00;101077.56;5013077;28;20038;-86
2023/03/19 03:05:58;;;;;;;22.75;19.15;;;;;;;9.04;100.00;101067.97;5013555;28;20070;-84
2023/03/19 03:08:27;;;;;;;22.52;18.38;;;;;;;9.04;100.00;101075.84;4986587;28;20056;-85
2023/03/19 03:10:55;;;;;;;21.35;18.33;;;;;;;9.03;100.00;101074.94;5007240;28;20049;-85
2023/03/19 03:13:23;;;;;;;21.65;17.55;;;;;;;9.04;100.00;101075.84;5030671;28;20053;-85
2023/03/19 03:15:52;;;;;;;23.67;17.65;;;;;;;9.04;100.00;101078.47;5034034;28;20049;-83
2023/03/19 03:18:19;;;;;;;21.70;17.23;;;;;;;9.03;100.00;101080.22;4997543;28;20067;-83
2023/03/19 03:20:47;;;;;;;22.52;17.40;;;;;;;9.02;100.00;101085.44;4976800;28;20060;-83
2023/03/19 03:23:16;;;;;;;17.98;14.90;;;;;;;9.01;100.00;101078.44;4999178;28;20312;-86
2023/03/19 03:25:47;;;;;;;20.55;16.50;;;;;;;9.01;100.00;101083.69;4980902;28;20049;-85
2023/03/19 03:28:16;;;;;;;18.02;15.50;;;;;;;9.01;100.00;101084.56;5016845;28;20057;-84
2023/03/19 03:30:45;;;;;;;23.50;16.40;;;;;;;9.00;100.00;101082.81;5020548;28;20053;-83
2023/03/19 03:33:13;;;;;;;19.63;15.65;;;;;;;9.01;100.00;101089.81;5014461;28;20064;-83
2023/03/19 03:35:40;;;;;;;19.42;15.90;;;;;;;9.01;100.00;101100.34;5024384;28;20056;-83
2023/03/19 03:38:08;;;;;;;22.08;15.02;;;;;;;9.01;100.00;101102.09;5014480;28;20054;-86
2023/03/19 03:40:36;;;;;;;23.05;16.45;;;;;;;9.01;100.00;101102.09;4983603;28;20050;-84
2023/03/19 03:43:03;;;;;;;16.10;14.40;;;;;;;9.01;100.00;101096.84;5031893;28;20502;-83
2023/03/19 03:45:34;;;;;;;18.55;14.75;;;;;;;9.00;100.00;101088.06;4997827;28;20042;-83
2023/03/19 03:48:03;;;;;;;17.02;14.27;;;;;;;9.01;100.00;101097.72;4998727;28;20541;-83
2023/03/19 03:50:30;;;;;;;19.88;14.50;;;;;;;9.01;100.00;101088.94;4999750;28;20042;-83
2023/03/19 03:53:03;;;;;;;15.48;13.75;;;;;;;9.02;100.00;101091.59;5012999;28;20522;-83
2023/03/19 03:55:31;;;;;;;21.25;15.30;;;;;;;9.02;100.00;101093.31;4997636;28;20057;-83
2023/03/19 03:57:58;;;;;;;17.80;14.25;;;;;;;9.02;100.00;101091.59;4971303;28;20054;-84
2023/03/19 04:00:26;;;;;;;19.17;15.10;;;;;;;9.03;100.00;101097.72;5025733;28;20042;-84
2023/03/19 04:02:58;;;;;;;17.20;14.38;;;;;;;9.02;100.00;101091.59;4994965;28;20049;-84
2023/03/19 04:05:25;;;;;;;21.90;15.48;;;;;;;9.03;100.00;101098.59;5012895;28;20515;-84
2023/03/19 04:08:04;;;;;;;17.50;14.00;;;;;;;9.01;100.00;101102.09;5025199;28;20053;-84
2023/03/19 04:10:32;;;;;;;19.35;14.60;;;;;;;9.00;100.00;101095.97;5016821;28;20054;-84
2023/03/19 04:13:00;;;;;;;21.00;15.95;;;;;;;8.98;100.00;101095.94;4982220;28;20077;-83
2023/03/19 04:15:32;;;;;;;20.02;15.07;;;;;;;8.96;100.00;101096.78;5021915;28;20042;-85
2023/03/19 04:18:00;;;;;;;20.23;15.88;;;;;;;8.95;100.00;101103.75;5016237;28;20064;-84
2023/03/19 04:20:31;;;;;;;24.17;15.60;;;;;;;8.94;100.00;101099.38;5033428;28;20045;-83
2023/03/19 04:23:00;;;;;;;16.35;14.10;;;;;;;8.92;100.00;101101.09;5014298;28;20060;-84
2023/03/19 04:25:29;;;;;;;18.42;14.95;;;;;;;8.91;100.00;101101.97;4997651;28;20060;-83
2023/03/19 04:27:57;;;;;;;23.05;15.63;;;;;;;8.89;100.00;101110.69;4989020;28;20045;-84
2023/03/19 04:30:27;;;;;;;;;;;;;;;8.87;100.00;101100.16;4993558;28;20053;-83
2023/03/19 04:32:56;;;;;;;21.38;15.60;;;;;;;8.85;100.00;101111.50;5027057;28;19928;-84
2023/03/19 04:35:24;;;;;;;18.90;14.25;;;;;;;8.84;100.00;101107.09;5001982;28;20068;-83
2023/03/19 04:37:51;;;;;;;18.30;15.07;;;;;;;8.85;100.00;101106.25;5002129;28;20060;-83
2023/03/19 04:40:20;;;;;;;17.98;15.18;;;;;;;8.84;100.00;101113.22;5018737;28;20494;-84
2023/03/19 04:42:49;;;;;;;20.52;15.57;;;;;;;8.85;100.00;101104.50;5008803;28;20442;-83
2023/03/19 04:45:35;;;;;;;19.77;14.63;;;;;;;8.86;100.00;101113.25;5003409;28;20064;-84
2023/03/19 04:48:02;;;;;;;20.67;16.15;;;;;;;8.86;100.00;101110.63;4999597;28;20057;-83
2023/03/19 04:50:33;;;;;;;19.92;14.70;;;;;;;8.87;100.00;101115.91;5029853;28;20053;-84
2023/03/19 04:53:03;;;;;;;21.00;16.50;;;;;;;8.86;100.00;101116.75;5000151;28;20451;-83
2023/03/19 04:55:31;;;;;;;18.80;14.88;;;;;;;8.89;100.00;101118.56;5002375;28;20069;-84
2023/03/19 04:58:08;;;;;;;21.27;16.08;;;;;;;8.90;100.00;101123.88;4981730;28;22398;-83
2023/03/19 05:00:37;;;;;;;19.77;16.13;;;;;;;8.92;100.00;101121.22;4994617;28;20045;-83
2023/03/19 05:03:06;;;;;;;19.30;15.30;;;;;;;8.93;100.00;101125.63;4975180;28;20054;-84
2023/03/19 05:05:34;;;;;;;18.33;15.05;;;;;;;8.92;100.00;101115.97;5021396;28;20054;-84
2023/03/19 05:08:07;;;;;;;15.85;14.15;;;;;;;8.93;100.00;101116.00;5005491;28;20054;-84
2023/03/19 05:10:36;;;;;;;17.10;14.60;;;;;;;8.94;100.00;101120.41;4985308;28;20041;-84
2023/03/19 05:13:04;;;;;;;15.20;13.60;;;;;;;8.95;100.00;101118.66;5005608;28;20061;-84
2023/03/19 05:15:36;;;;;;;16.17;13.40;;;;;;;8.95;100.00;101124.78;5022960;28;20561;-83
2023/03/19 05:18:07;;;;;;;16.33;14.13;;;;;;;8.96;100.00;101123.06;5012609;28;20499;-84
2023/03/19 05:20:41;;;;;;;16.17;13.38;;;;;;;8.96;100.00;101134.44;4993141;28;20128;-84
2023/03/19 05:23:16;;;;;;;16.95;12.90;;;;;;;8.98;100.00;101132.72;5022311;28;20045;-84
2023/03/19 05:25:59;;;;;;;15.95;12.65;;;;;;;8.98;100.00;101127.47;5022638;28;20049;-84
2023/03/19 05:28:47;;;;;;;16.02;13.68;;;;;;;9.00;100.00;101134.47;4991514;28;20057;-83
2023/03/19 05:31:18;;;;;;;17.48;13.30;;;;;;;9.00;100.00;101130.13;5016735;28;20049;-83
2023/03/19 05:33:50;;;;;;;14.10;12.38;;;;;;;9.01;100.00;101137.13;5031370;28;20053;-85
2023/03/19 05:36:18;;;;;;;16.55;11.63;;;;;;;9.01;100.00;101136.25;5030654;28;20053;-83
2023/03/19 05:38:57;;;;;;;15.30;12.63;;;;;;;9.02;100.00;101132.75;5034551;28;20510;-85
2023/03/19 05:41:31;;;;;;;15.25;12.23;;;;;;;9.02;100.00;101138.00;5004816;28;20558;-83
2023/03/19 05:44:03;;;;;;;14.07;12.32;;;;;;;9.02;100.00;101138.00;5031075;28;20076;-83
2023/03/19 05:46:42;;;;;;;17.65;12.23;;;;;;;9.02;100.00;101145.91;5008658;28;20053;-83
2023/03/19 05:49:14;;;;;;;16.45;12.05;;;;;;;9.00;100.00;101142.38;5033021;28;20048;-83
2023/03/19 05:51:44;;;;;;;19.00;14.07;;;;;;;8.95;100.00;101143.19;5024639;28;20056;-83
2023/03/19 05:54:12;;;;;;;16.77;13.05;;;;;;;8.93;100.00;101144.03;5019556;28;20054;-83
2023/03/19 05:56:48;;;;;;;13.73;11.30;;;;;;;8.87;100.00;101147.47;5004027;28;20508;-83
2023/03/19 05:59:42;;;;;;;13.43;11.45;;;;;;;8.83;100.00;101157.88;4992253;28;20056;-83
2023/03/19 06:02:36;;;;;;;14.95;12.68;;;;;;;8.75;100.00;101153.41;5003625;28;20061;-83
2023/03/19 06:05:30;;;;;;;12.75;11.10;;;;;;;8.69;100.00;101155.94;5013277;28;20064;-83
2023/03/19 06:08:05;;;;;;;14.68;11.52;;;;;;;8.65;100.00;101162.00;5016949;28;20052;-84
2023/03/19 06:10:51;;;;;;;15.13;12.07;;;;;;;8.60;100.00;101166.31;5016493;28;20037;-85
2023/03/19 06:13:19;;;;;;;14.93;11.75;;;;;;;8.56;100.00;101164.47;5037656;28;20483;-85
2023/03/19 06:15:52;;;;;;;13.77;11.88;;;;;;;8.55;100.00;101165.34;5011028;28;20040;-85
2023/03/19 06:18:25;;;;;;;13.93;12.23;;;;;;;8.52;100.00;101167.91;5036669;28;20060;-84
2023/03/19 06:20:52;;;;;;;16.55;12.70;;;;;;;8.51;100.00;101168.78;4989753;28;20057;-85
2023/03/19 06:23:20;;;;;;;13.88;12.13;;;;;;;8.51;100.00;101176.66;4984753;28;20061;-83
2023/03/19 06:25:48;;;;;;;13.30;11.77;;;;;;;8.53;100.00;101182.81;5018185;28;20050;-84
2023/03/19 06:28:17;;;;;;;14.30;12.10;;;;;;;8.55;100.00;101186.34;5002971;28;20413;-84
2023/03/19 06:30:45;;;;;;;15.07;12.38;;;;;;;8.55;100.00;101189.88;4987372;28;20694;-85
2023/03/19 06:33:42;;;;;;;14.25;11.70;;;;;;;8.58;100.00;101187.28;5021482;28;20056;-85
2023/03/19 06:36:10;;;;;;;15.07;11.48;;;;;;;8.61;100.00;101196.09;5032885;28;20049;-84
2023/03/19 06:38:38;;;;;;;14.77;11.13;;;;;;;8.62;100.00;101189.97;4998746;28;20045;-85
2023/03/19 06:41:05;;;;;;;15.70;12.95;;;;;;;8.61;100.00;101199.59;5004769;28;20156;-85
2023/03/19 06:43:35;;;;;;;14.40;11.13;;;;;;;8.61;100.00;101209.22;5016329;28;20060;-84
2023/03/19 06:46:04;;;;;;;15.05;11.85;;;;;;;8.61;100.00;101207.47;5016786;28;20050;-84
2023/03/19 06:48:33;;;;;;;15.57;11.75;;;;;;;8.61;100.00;101211.84;5008807;28;20057;-84
2023/03/19 06:51:00;;;;;;;12.75;11.45;;;;;;;8.65;100.00;101208.41;5029848;28;20418;-84
2023/03/19 06:53:30;;;;;;;16.13;11.95;;;;;;;8.75;100.00;101210.31;4991149;28;20438;-84
2023/03/19 06:55:58;;;;;;;12.85;10.20;;;;;;;8.84;100.00;101209.59;5026248;28;20041;-84
2023/03/19 06:58:35;;;;;;;15.35;10.77;;;;;;;8.96;100.00;101207.19;5000292;28;20057;-84
2023/03/19 07:01:03;;;;;;;13.65;11.65;;;;;;;9.09;100.00;101208.22;5004426;28;20049;-84
2023/03/19 07:03:30;;;;;;;12.88;10.70;;;;;;;9.26;100.00;101206.75;5008323;28;20052;-85
2023/03/19 07:06:10;;;;;;;12.85;10.88;;;;;;;9.46;100.00;101212.28;4989964;28;20061;-85
2023/03/19 07:08:37;;;;;;;12.05;10.85;;;;;;;9.67;100.00;101208.16;5015809;28;20057;-84
2023/03/19 07:11:09;;;;;;;11.98;9.45;;;;;;;9.94;100.00;101216.41;5012813;28;20026;-84
2023/03/19 07:13:37;;;;;;;10.00;8.98;;;;;;;10.30;100.00;101215.06;4992366;28;20053;-85
2023/03/19 07:16:05;;;;;;;9.65;8.30;;;;;;;10.68;100.00;101211.00;4991535;28;20065;-83
2023/03/19 07:18:32;;;;;;;9.98;7.80;;;;;;;11.08;100.00;101211.34;4972822;28;20054;-83
2023/03/19 07:21:00;;;;;;;9.90;6.90;;;;;;;11.42;100.00;101215.06;5036497;28;20413;-84
2023/03/19 07:23:31;;;;;;;7.55;6.85;;;;;;;11.73;100.00;101209.91;4996102;28;20056;-84
2023/03/19 07:25:58;;;;;;;7.45;6.75;;;;;;;12.08;100.00;101222.41;5032994;28;20632;-85
2023/03/19 07:28:25;;;;;;;6.57;5.95;;;;;;;12.45;100.00;101222.47;5018521;28;20057;-84
2023/03/19 07:30:53;;;;;;;6.50;5.90;;;;;;;12.74;100.00;101218.97;4998361;28;20046;-84
2023/03/19 07:33:25;;;;;;;5.95;5.45;;;;;;;12.90;100.00;101222.53;4981304;28;20514;-84
2023/03/19 07:35:57;;;;;;;6.40;5.65;;;;;;;12.98;100.00;101226.91;5003793;28;20065;-85
2023/03/19 07:38:25;;;;;;;5.85;5.35;;;;;;;12.98;100.00;101229.53;5007504;28;20220;-83
2023/03/19 07:40:53;;;;;;;7.10;6.32;;;;;;;13.00;100.00;101242.78;5013697;28;20050;-85
2023/03/19 07:43:30;;;;;;;6.05;5.20;;;;;;;13.02;100.00;101241.00;5018298;28;20403;-83
2023/03/19 07:45:59;;;;;;;5.72;5.07;;;;;;;12.98;100.00;101239.25;5017723;28;20057;-84
2023/03/19 07:48:29;;;;;;;;;;;;;;;12.98;100.00;101245.41;5017722;28;20084;-84
2023/03/19 07:50:59;;;;;;;7.10;6.40;;;;;;;13.00;100.00;101253.38;4998089;28;19921;-84
2023/03/19 07:53:26;;;;;;;6.88;6.13;;;;;;;13.07;100.00;101250.72;5032263;28;20033;-84
2023/03/19 07:55:54;;;;;;;6.97;6.18;;;;;;;13.19;100.00;101248.94;5019783;28;20492;-84
2023/03/19 07:58:21;;;;;;;6.93;5.70;;;;;;;13.06;100.00;101250.72;5017652;28;20049;-84
2023/03/19 08:00:49;;;;;;;7.20;6.20;;;;;;;12.85;100.00;101252.50;5018172;28;20048;-85
2023/03/19 08:03:16;;;;;;;6.50;5.93;;;;;;;12.62;100.00;101255.09;5014418;28;20049;-85
2023/03/19 08:05:44;;;;;;;8.52;6.68;;;;;;;12.44;100.00;101263.03;4955799;28;20503;-84
2023/03/19 08:08:11;;;;;;;6.95;6.30;;;;;;;12.37;100.00;101267.41;4986374;28;20049;-84
2023/03/19 08:10:39;;;;;;;6.80;6.15;;;;;;;12.55;100.00;101265.66;4988730;28;20046;-84
2023/03/19 08:13:07;;;;;;;9.85;7.50;;;;;;;12.80;100.00;101269.25;4984265;28;20053;-84
2023/03/19 08:15:34;;;;;;;9.43;7.50;;;;;;;12.99;100.00;101268.34;4952220;28;20065;-82
2023/03/19 08:18:05;;;;;;;9.13;8.23;;;;;;;13.20;100.00;101267.47;5013654;28;20423;-84
2023/03/19 08:20:35;;;;;;;7.43;6.72;;;;;;;13.49;100.00;101271.00;4979502;28;20048;-83
2023/03/19 08:23:03;;;;;;;11.85;8.07;;;;;;;13.63;100.00;101271.84;5026986;28;20053;-83
2023/03/19 08:25:31;;;;;;;8.73;7.90;;;;;;;13.61;100.00;101277.16;5031033;28;20034;-84
2023/03/19 08:27:59;;;;;;;10.43;9.13;;;;;;;13.53;100.00;101281.56;4996385;28;20052;-84
2023/03/19 08:30:30;;;;;;;10.40;9.20;;;;;;;13.31;100.00;101285.13;5015103;28;20050;-84
2023/03/19 08:32:58;;;;;;;8.73;7.82;;;;;;;13.05;100.00;101289.50;5018331;28;20068;-83
2023/03/19 08:35:26;;;;;;;10.77;9.10;;;;;;;13.05;100.00;101288.66;5038156;28;20042;-83
2023/03/19 08:37:54;;;;;;;9.68;8.77;;;;;;;13.04;100.00;101286.88;4974071;28;20061;-84
2023/03/19 08:40:23;;;;;;;10.43;8.90;;;;;;;12.98;100.00;101292.16;5009087;28;20046;-84
2023/03/19 08:42:50;;;;;;;10.18;9.05;;;;;;;12.96;100.00;101299.22;5012732;28;20053;-83
2023/03/19 08:45:18;;;;;;;10.32;9.38;;;;;;;13.02;100.00;101300.13;5010015;28;20057;-84
2023/03/19 08:47:47;;;;;;;10.25;9.25;;;;;;;13.07;100.00;101295.69;5025043;28;20038;-82
2023/03/19 08:50:16;;;;;;;10.00;9.05;;;;;;;13.06;100.00;101293.03;5027658;28;20045;-83
2023/03/19 08:52:43;;;;;;;11.55;10.35;;;;;;;13.01;100.00;101300.13;4998955;28;20061;-83
2023/03/19 08:55:11;;;;;;;11.18;10.07;;;;;;;13.10;100.00;101299.22;4991632;28;20419;-84
2023/03/19 08:57:38;;;;;;;11.27;9.98;;;;;;;13.15;100.00;101311.56;5007245;28;20068;-83
2023/03/19 09:00:07;;;;;;;10.70;9.60;;;;;;;13.24;100.00;101316.84;5019188;28;20462;-82
2023/03/19 09:02:35;;;;;;;10.65;9.55;;;;;;;13.24;100.00;101311.56;5018957;28;20049;-81
2023/03/19 09:05:03;;;;;;;9.48;8.48;;;;;;;13.21;100.00;101316.88;5019926;28;20360;-83
2023/03/19 09:07:30;;;;;;;11.95;9.30;;;;;;;13.16;100.00;101321.28;4978628;28;20064;-82
2023/03/19 09:09:57;;;;;;;8.70;7.80;;;;;;;13.18;100.00;101316.88;5010502;28;20470;-82
2023/03/19 09:12:25;;;;;;;8.90;8.00;;;;;;;13.38;100.00;101321.28;5008198;28;20054;-82
2023/03/19 09:14:52;;;;;;;8.32;6.38;;;;;;;13.58;100.00;101316.84;4998600;28;20030;-81
2023/03/19 09:17:19;;;;;;;6.55;5.90;;;;;;;13.70;100.00;101315.94;5013762;28;20498;-82
2023/03/19 09:19:47;;;;;;;6.53;5.53;;;;;;;13.77;100.00;101323.00;5002420;28;20061;-83
2023/03/19 09:22:14;;;;;;;6.18;5.68;;;;;;;13.74;100.00;101323.03;4998609;28;20033;-81
2023/03/19 09:24:41;;;;;;;6.70;5.88;;;;;;;13.57;100.00;101323.06;5021882;28;20053;-83
2023/03/19 09:27:09;;;;;;;7.75;7.07;;;;;;;13.25;100.00;101326.56;4990760;28;20065;-82
2023/03/19 09:29:36;;;;;;;9.43;8.38;;;;;;;12.99;100.00;101336.28;5004231;28;20589;-82
2023/03/19 09:32:04;;;;;;;11.23;10.00;;;;;;;12.80;100.00;101340.66;4994772;28;20057;-83
2023/03/19 09:34:32;;;;;;;10.43;9.32;;;;;;;12.56;100.00;101342.34;5020285;28;20042;-82
2023/03/19 09:37:00;;;;;;;11.27;9.63;;;;;;;12.47;100.00;101344.94;4954512;28;21106;-82
2023/03/19 09:39:31;;;;;;;10.60;9.60;;;;;;;12.35;100.00;101347.56;4988400;28;20058;-82
2023/03/19 09:42:17;;;;;;;11.40;10.30;;;;;;;12.31;100.00;101340.50;5012386;28;20414;-82
2023/03/19 09:44:45;;;;;;;11.38;10.15;;;;;;;12.27;100.00;101350.19;5016817;28;20049;-81
2023/03/19 09:47:25;;;;;;;11.85;10.68;;;;;;;12.27;100.00;101353.69;5033225;28;20045;-82
2023/03/19 09:49:57;;;;;;;11.43;9.57;;;;;;;12.40;100.00;101362.56;5018508;28;20337;-83
2023/03/19 09:52:57;;;;;;;10.93;9.82;;;;;;;12.54;100.00;101361.72;5011832;28;20300;-82
2023/03/19 09:55:44;;;;;;;11.40;10.13;;;;;;;12.64;100.00;101360.88;5025660;28;20426;-85
2023/03/19 09:58:15;;;;;;;11.30;10.10;;;;;;;12.81;100.00;101364.44;5012369;28;20045;-82
2023/03/19 10:00:47;;;;;;;9.68;8.77;;;;;;;12.99;100.00;101360.06;5014767;28;20045;-81
2023/03/19 10:03:33;;;;;;;9.18;8.20;;;;;;;13.14;100.00;101362.75;5040919;28;20057;-84
2023/03/19 10:06:07;;;;;;;9.13;8.10;;;;;;;13.30;100.00;101368.03;5031585;28;20049;-83
2023/03/19 10:08:44;;;;;;;9.65;8.63;;;;;;;13.49;100.00;101380.41;5027747;28;20045;-82
2023/03/19 10:11:47;;;;;;;8.05;7.18;;;;;;;13.58;100.00;101377.75;5012640;28;20060;-84
2023/03/19 10:15:03;;;;;;;6.57;5.72;;;;;;;13.59;100.00;101374.25;5026850;28;20506;-83
2023/03/19 10:17:39;;;;;;;6.28;5.68;;;;;;;13.52;100.00;101382.19;4995229;28;20058;-84
2023/03/19 10:20:21;;;;;;;5.85;5.35;;;;;;;13.40;100.00;101385.69;5033922;28;20054;-83
2023/03/19 10:22:59;;;;;;;6.97;6.25;;;;;;;13.28;100.00;101386.56;5031641;28;20037;-82
2023/03/19 10:25:38;;;;;;;8.00;6.20;;;;;;;13.22;100.00;101382.13;5020237;28;20053;-84
2023/03/19 10:28:19;;;;;;;6.75;6.15;;;;;;;13.16;100.00;101382.13;5028931;28;20080;-83
2023/03/19 10:31:16;;;;;;;7.20;6.50;;;;;;;13.00;100.00;101385.63;5009742;28;20042;-84
2023/03/19 10:33:55;;;;;;;8.05;6.80;;;;;;;12.86;100.00;101383.84;5000437;28;20391;-80
2023/03/19 10:36:29;;;;;;;7.40;6.70;;;;;;;12.82;100.00;101391.78;5023945;28;20042;-82
2023/03/19 10:38:57;;;;;;;7.10;6.40;;;;;;;12.81;100.00;101390.00;5016708;28;20538;-80
2023/03/19 10:41:49;;;;;;;7.60;5.88;;;;;;;12.80;100.00;101389.13;4975098;28;20037;-82
2023/03/19 10:44:46;;;;;;;6.40;5.80;;;;;;;12.79;100.00;101386.47;5026698;28;20057;-80
2023/03/19 10:47:15;;;;;;;6.93;6.28;;;;;;;12.86;100.00;101390.91;5021853;28;20564;-81
2023/03/19 10:49:43;;;;;;;6.88;6.28;;;;;;;12.89;100.00;101396.19;5015251;28;20057;-81
2023/03/19 10:52:31;;;;;;;7.20;6.50;;;;;;;12.96;100.00;101397.97;5009537;28;20129;-81
2023/03/19 10:55:17;;;;;;;6.20;5.60;;;;;;;13.08;100.00;101394.50;5020874;28;20057;-81
2023/03/19 10:57:49;;;;;;;7.35;6.65;;;;;;;13.14;100.00;101391.84;5033534;28;20049;-82
2023/03/19 11:00:21;;;;;;;8.77;7.88;;;;;;;13.16;100.00;101395.38;5018258;28;20045;-81
2023/03/19 11:02:52;;;;;;;7.95;7.25;;;;;;;13.19;100.00;101387.41;5005984;28;20041;-82
2023/03/19 11:05:20;;;;;;;;;;;;;;;13.30;100.00;101390.13;5031590;28;20060;-82
2023/03/19 11:07:50;;;;;;;6.85;6.13;;;;;;;13.36;100.00;101394.53;5023435;28;19925;-81
2023/03/19 11:10:19;;;;;;;7.53;6.82;;;;;;;13.44;100.00;101404.25;5004498;28;20056;-81
2023/03/19 11:12:53;;;;;;;8.20;6.40;;;;;;;13.52;100.00;101406.91;5016638;28;20050;-84
2023/03/19 11:15:31;;;;;;;7.18;6.53;;;;;;;13.57;100.00;101409.53;5029585;28;20060;-83
2023/03/19 11:18:05;;;;;;;8.02;7.18;;;;;;;13.55;100.00;101406.88;5011008;28;20042;-82
2023/03/19 11:20:36;;;;;;;7.38;6.68;;;;;;;13.52;100.00;101412.19;5023182;28;20061;-83
2023/03/19 11:23:15;;;;;;;8.93;7.00;;;;;;;13.53;100.00;101413.94;5034788;28;20577;-83
2023/03/19 11:25:51;;;;;;;6.40;5.70;;;;;;;13.50;100.00;101418.38;5003741;28;20045;-77
2023/03/19 11:28:23;;;;;;;7.53;6.60;;;;;;;13.45;100.00;101421.00;4966493;28;20450;-77
2023/03/19 11:31:14;;;;;;;6.53;5.70;;;;;;;13.43;100.00;101421.00;5016752;28;20037;-77
2023/03/19 11:34:13;;;;;;;6.65;6.00;;;;;;;13.36;100.00;101421.88;5022686;28;20049;-77